Airfield :
LOGIN :

Register | Disclaimer

   EN    FR    IT 

 










Legend :    VFR   Marginal VFR   IFR   Intensive IFR   Very Intensive IFR
Visi :
Ceiling :
>= 8 km
>= 3000ft
5 to 8 km
1000 to 3000 ft
1500m to 5 km
500 to 1000 ft
800 to 1500m
200 to 500 ft
< 800m
< 200 ft
Symbols :   Thunderstorms  Fog  Heavy snow  Heavy precipitations  Wind > 20 kt
SIGMETs :     Misc.  Thunderstorms  Icing  Turbulence  Mountain Waves  Volcanic Ashes






- Airport Elevation : 1213 ft
- IATA code : SCQ


LEST - Santiago de Compostela

CURRENT METAR :
  • 250530Z 31002KT 0200 R17/0400N R35/0650N FG VV001 15/15 Q1010 NOSIG

EXPIRED METARs :
  • 250500Z 31001KT 0200 R17/0400N R35/0350N FG VV001 15/15 Q1010 NOSIG
  • 250430Z VRB02KT 0200 R17/0500N R35/0650N FG VV001 15/15 Q1010 NOSIG
  • 250400Z 00000KT 0300 R17/0500N R35/0600U FG VV001 15/15 Q1010 NOSIG
  • 250330Z VRB02KT 0400 R17/0500D R35/0650D FG VV001 16/15 Q1010 NOSIG
  • 250300Z VRB01KT 2000 BCFG SCT001 16/15 Q1010 NOSIG
  • 250230Z VRB01KT 6000 NSC 16/15 Q1010 NOSIG
  • 250200Z 30002KT 8000 NSC 16/16 Q1011 NOSIG
  • 250130Z VRB01KT CAVOK 16/16 Q1011 NOSIG
  • 250100Z 30003KT CAVOK 17/16 Q1011 NOSIG
  • 250030Z 29002KT CAVOK 17/16 Q1011 NOSIG

TAF COR TAF LEST
Valid from the 25 at 06:00 until the 26 at 06:00 UTC


250543Z 2506/2606 23009KT 9999 SCT005 BKN020 TX23/2512Z TN15/2606Z
PROB40
TEMPO 2506/2507 3000 BR BKN005
PROB30
TEMPO 2506/2507 0350 FG VV001
PROB40
TEMPO 2512/2518 32010KT
PROB40
TEMPO 2518/2606 BKN010
PROB40
TEMPO 2523/2606 36010KT 3000 BR BKN005



MET'MAP, your aeronautical weather chart ! - Copyright ORBIFLY December 2007 - Disclaimer

ORBIFLY MET'MAP TEAM :

Programming & Development : Alexandra Zaïnal
Original concept : Baudouin d'Aumeries
Technical & hardware support : Manuel Goepfert
Assistance : Marc-Olivier Méhu




SOURCES & CREDITS :

   NOAA